CW8593 Gava ES current weather conditions

sailwx.info

Wind from 294 at 7 knots gusting 11

Air temperature 10.6° C
Dewpoint 7.4° C

Last reported at 2014-Dec-19 21:42 UTC.
Time now 2014-Dec-19 22:46 UTC

Location: N 41°18' E 001°60'.
View on Google Maps.

See reports from other nearby stations

  
Tides and Currents Weather Stations Pressure Air Temp Water Temp Dewpoint Dewpoint Depression Visibility Wind Speed Wind Dir Waves Ship Positions
date/time (UTC)wind fromknots sea level pressurealtimeterstation pressurevisibilityair tempwater tempwave heightnotes
2014-Dec-19 21:42 294 7 gusting 11 10.6
2014-Dec-19 21:32 301 7 gusting 12 10.6
2014-Dec-19 21:22 298 7 gusting 11 10.6
2014-Dec-19 21:12 291 6 gusting 10 10.6
2014-Dec-19 20:52 289 6 gusting 11 10.6
2014-Dec-19 20:42 286 6 gusting 10 10.6
2014-Dec-19 20:22 315 3 gusting 6 11.1
2014-Dec-19 20:12 012 0 gusting 4 11.1
2014-Dec-19 19:52 326 0 gusting 4 11.1
2014-Dec-19 19:42 310 11.1
2014-Dec-19 19:32 313 0 gusting 4 11.1
2014-Dec-19 19:22 033 11.1
2014-Dec-19 19:02 279 1 gusting 4 11.1
2014-Dec-19 18:32 11.1
2014-Dec-19 18:22 294 11.1
2014-Dec-19 18:12 294 2 gusting 6 11.1
2014-Dec-19 17:42 323 5 gusting 10 11.1
2014-Dec-19 17:12 288 6 gusting 10 11.7
2014-Dec-19 16:42 326 3 gusting 10 12.8
2014-Dec-19 16:32 348 1 gusting 6 12.8
2014-Dec-19 16:22 302 1 gusting 6 13.3
2014-Dec-19 16:12 348 2 gusting 5 13.9
2014-Dec-19 16:02 298 0 gusting 2 14.4
2014-Dec-19 15:52 298 0 gusting 5 14.4
2014-Dec-19 15:32 146 15.0
2014-Dec-19 15:22 148 15.6
2014-Dec-19 15:12 146 15.6
2014-Dec-19 15:02 147 15.6
2014-Dec-19 14:52 146 0 gusting 4 15.6
2014-Dec-19 14:42 129 1 gusting 4 15.6
2014-Dec-19 14:22 188 16.7
2014-Dec-19 14:12 188 0 gusting 4 16.7
2014-Dec-19 14:02 188 0 gusting 2 16.7
2014-Dec-19 13:42 204 1 gusting 4 16.1
2014-Dec-19 13:32 207 16.7
2014-Dec-19 13:22 214 0 gusting 5 16.7
2014-Dec-19 12:52 205 0 gusting 5 16.7
2014-Dec-19 12:22 215 16.7
2014-Dec-19 12:02 205 0 gusting 5 16.7
2014-Dec-19 11:52 186 1 gusting 4 16.7
2014-Dec-19 11:42 194 1 gusting 5 16.7
2014-Dec-19 11:32 213 1 gusting 4 17.2
2014-Dec-19 11:22 213 16.7
2014-Dec-19 11:02 213 2 gusting 6 16.1
2014-Dec-19 10:42 057 0 gusting 2 16.7
2014-Dec-19 10:02 055 1 gusting 2 15.6
2014-Dec-19 09:52 053 15.0
2014-Dec-19 09:32 066 2 gusting 6 13.9
2014-Dec-19 09:22 013 1 gusting 2 14.4
2014-Dec-19 09:12 330 0 gusting 2 13.9
2014-Dec-19 09:02 318 0 gusting 2 13.9
2014-Dec-19 08:52 318 0 gusting 4 13.3
2014-Dec-19 08:42 303 2 gusting 6 13.3
2014-Dec-19 08:32 298 3 gusting 5 13.3
2014-Dec-19 08:02 302 12.8
2014-Dec-19 07:52 302 0 gusting 7 12.8
2014-Dec-19 07:42 293 2 gusting 6 12.2
2014-Dec-19 07:12 342 11.7
2014-Dec-19 07:02 342 11.7
2014-Dec-19 06:42 342 0 gusting 5 12.2
2014-Dec-19 06:32 307 1 gusting 6 12.2
2014-Dec-19 06:22 304 3 gusting 6 11.7
2014-Dec-19 06:12 327 11.7
2014-Dec-19 06:02 327 0 gusting 5 12.2
2014-Dec-19 05:52 314 2 gusting 4 11.7
2014-Dec-19 05:42 331 11.7
2014-Dec-19 05:22 331 0 gusting 2 11.1
2014-Dec-19 05:12 330 10.6
2014-Dec-19 05:02 331 10.6
2014-Dec-19 04:52 331 11.1
2014-Dec-19 04:42 331 11.1
2014-Dec-19 04:22 330 11.1
2014-Dec-19 04:12 331 11.1
2014-Dec-19 04:02 330 1 gusting 2 11.7
2014-Dec-19 03:52 331 0 gusting 1 11.1
2014-Dec-19 03:42 330 0 gusting 2 11.7
2014-Dec-19 03:22 330 11.7
2014-Dec-19 03:02 331 12.2
2014-Dec-19 02:52 331 12.2
2014-Dec-19 02:32 330 12.2
2014-Dec-19 02:22 330 12.2
2014-Dec-19 02:02 331 0 gusting 2 12.2
2014-Dec-19 01:52 330 1 gusting 2 12.2
2014-Dec-19 01:22 331 12.2
2014-Dec-19 01:12 330 12.8
2014-Dec-19 01:02 331 12.2
2014-Dec-19 00:42 331 12.2
2014-Dec-19 00:32 331 12.2
2014-Dec-19 00:22 331 12.8
2014-Dec-19 00:12 331 13.9
2014-Dec-19 00:02 331 0 gusting 1 13.3
2014-Dec-18 23:22 330 0 gusting 2 12.2
2014-Dec-18 23:12 330 12.8
2014-Dec-18 23:02 330 12.8
2014-Dec-18 22:42 330 13.9
2014-Dec-18 22:32 330 1 gusting 2 13.9
2014-Dec-18 22:12 327 1 gusting 5 13.9
2014-Dec-18 22:02 338 1 gusting 5 13.9
2014-Dec-18 21:52 327 1 gusting 2 13.9
2014-Dec-18 21:42 327 13.3
2014-Dec-18 21:22 327 0 gusting 2 13.9
2014-Dec-18 21:12 326 13.9
2014-Dec-18 21:02 327 13.9
2014-Dec-18 20:52 327 13.9
2014-Dec-18 20:42 327 13.9
2014-Dec-18 20:32 327 14.4
2014-Dec-18 20:22 327 14.4
2014-Dec-18 20:12 327 14.4
2014-Dec-18 20:02 327 0 gusting 2 14.4
2014-Dec-18 19:42 327 0 gusting 2 15.0
2014-Dec-18 19:22 326 2 gusting 4 15.0
2014-Dec-18 19:12 239 15.0
2014-Dec-18 18:42 238 14.4
2014-Dec-18 18:32 235 1 gusting 2 14.4
2014-Dec-18 18:12 196 13.9
2014-Dec-18 17:52 154 13.9
2014-Dec-18 17:42 154 13.9
2014-Dec-18 17:32 154 13.9
2014-Dec-18 17:02 154 13.9
2014-Dec-18 16:42 154 1 gusting 2 14.4
2014-Dec-18 16:22 154 0 gusting 2 15.0
2014-Dec-18 16:02 154 15.6
2014-Dec-18 15:42 154 16.1
2014-Dec-18 15:22 154 16.1
2014-Dec-18 15:12 154 16.1
2014-Dec-18 14:52 154 0 gusting 2 16.1
2014-Dec-18 14:42 153 0 gusting 2 16.7
2014-Dec-18 14:32 154 1 gusting 2 16.7
2014-Dec-18 14:22 153 17.2
2014-Dec-18 14:12 154 0 gusting 2 17.2
2014-Dec-18 14:02 153 16.7
2014-Dec-18 13:52 154 0 gusting 4 16.7
2014-Dec-18 13:42 153 0 gusting 4 16.7
2014-Dec-18 13:12 137 0 gusting 2 16.1
2014-Dec-18 13:02 137 0 gusting 4 16.1
2014-Dec-18 12:52 134 0 gusting 6 16.7
2014-Dec-18 12:42 165 1 gusting 2 16.7
2014-Dec-18 12:32 178 0 gusting 5 16.7
2014-Dec-18 12:22 121 2 gusting 5 17.2
2014-Dec-18 12:12 186 0 gusting 5 17.2
2014-Dec-18 11:52 142 1 gusting 2 16.7
2014-Dec-18 11:32 189 0 gusting 4 16.1
2014-Dec-18 11:12 177 2 gusting 5 16.1
2014-Dec-18 11:02 177 2 gusting 4 16.1
2014-Dec-18 10:32 275 15.0
2014-Dec-18 10:22 275 0 gusting 2 15.6
2014-Dec-18 10:02 279 15.0
2014-Dec-18 09:42 279 14.4
2014-Dec-18 09:32 279 13.9
2014-Dec-18 09:02 279 12.8
2014-Dec-18 08:52 279 12.8
2014-Dec-18 08:22 279 11.7
2014-Dec-18 08:12 279 0 gusting 2 11.7
2014-Dec-18 08:02 279 11.1
2014-Dec-18 07:52 277 10.6
2014-Dec-18 07:32 277 10.0
2014-Dec-18 07:22 277 10.0
2014-Dec-18 07:12 277 10.0
2014-Dec-18 07:02 277 1 gusting 2 10.0
2014-Dec-18 06:52 277 0 gusting 2 10.0
2014-Dec-18 05:22 277 0 gusting 4 9.4
2014-Dec-18 05:02 279 9.4
2014-Dec-18 04:52 279 0 gusting 1 9.4
2014-Dec-18 04:32 279 0 gusting 2 9.4
2014-Dec-18 04:12 279 0 gusting 2 10.6
2014-Dec-18 03:52 279 0 gusting 2 10.6
2014-Dec-18 03:32 279 0 gusting 4 9.4
2014-Dec-18 03:22 279 10.0
2014-Dec-18 03:12 279 0 gusting 2 10.0
2014-Dec-18 03:02 279 9.4
2014-Dec-18 02:42 278 9.4
2014-Dec-18 02:32 278 0 gusting 2 9.4
2014-Dec-18 02:22 278 9.4
2014-Dec-18 02:02 278 2 gusting 2 10.0
2014-Dec-18 01:32 278 0 gusting 1 10.0
2014-Dec-18 01:12 313 1 gusting 2 10.0
2014-Dec-18 01:02 313 0 gusting 2 10.0
2014-Dec-18 00:52 313 10.0
2014-Dec-18 00:42 313 10.6
2014-Dec-18 00:32 313 10.6
2014-Dec-18 00:22 313 0 gusting 2 10.6
2014-Dec-17 23:42 313 11.1
2014-Dec-17 23:32 313 11.1
2014-Dec-17 23:22 313 11.1
2014-Dec-17 23:02 313 0 gusting 5 10.6
2014-Dec-17 22:52 310 0 gusting 2 10.6
2014-Dec-17 22:42 310 10.6
2014-Dec-17 22:22 310 11.7
2014-Dec-17 22:12 310 1 gusting 2 11.1